SAS031 EKCH-ESSA
Flight info
| Callsign | SAS031 |
|---|---|
| Flight time | 0h 58m |
| Altitude | 35000 |
| Route | KEMAX DCT RASMU DCT DETSO N873 ARS T317 ELTOK |
| Aircraft | B738/M-SDFGHIRWXYZ/LB1 |
Departure
| Time | 2026-04-26 18:56 |
|---|---|
| Airport | Copenhagen Kastrup Airport (EKCH) |
Arrival
| Time | 2026-04-26 19:54 |
|---|---|
| Airport | Stockholm-Arlanda Airport (ESSA) |
| Time | Latitude | Longitude | Altitude | Speed | Heading |
|---|---|---|---|---|---|
| 2026-04-26 18:21 | 55.62643 | 12.64569 | 16 ft | 0 kts | 281° |
| 2026-04-26 18:43 | 55.62641 | 12.64589 | 16 ft | 3 kts | 281° |
| 2026-04-26 18:43 | 55.62637 | 12.64621 | 17 ft | 3 kts | 269° |
| 2026-04-26 18:43 | 55.62638 | 12.64653 | 17 ft | 3 kts | 242° |
| 2026-04-26 18:43 | 55.62647 | 12.64672 | 16 ft | 0 kts | 197° |
| 2026-04-26 18:46 | 55.62624 | 12.64661 | 16 ft | 7 kts | 192° |
| 2026-04-26 18:46 | 55.62577 | 12.64653 | 16 ft | 6 kts | 181° |
| 2026-04-26 18:47 | 55.62540 | 12.64652 | 16 ft | 5 kts | 179° |
| 2026-04-26 18:47 | 55.62512 | 12.64654 | 18 ft | 4 kts | 175° |
| 2026-04-26 18:47 | 55.62479 | 12.64663 | 16 ft | 6 kts | 171° |
| 2026-04-26 18:47 | 55.62417 | 12.64674 | 16 ft | 11 kts | 177° |
| 2026-04-26 18:48 | 55.62341 | 12.64690 | 18 ft | 11 kts | 151° |
| 2026-04-26 18:48 | 55.62290 | 12.64774 | 17 ft | 9 kts | 152° |
| 2026-04-26 18:48 | 55.62228 | 12.64786 | 17 ft | 9 kts | 193° |
| 2026-04-26 18:48 | 55.62174 | 12.64733 | 17 ft | 12 kts | 211° |
| 2026-04-26 18:49 | 55.62106 | 12.64656 | 17 ft | 12 kts | 214° |
| 2026-04-26 18:49 | 55.62035 | 12.64572 | 16 ft | 12 kts | 213° |
| 2026-04-26 18:49 | 55.61961 | 12.64511 | 16 ft | 12 kts | 193° |
| 2026-04-26 18:49 | 55.61872 | 12.64516 | 16 ft | 17 kts | 169° |
| 2026-04-26 18:50 | 55.61758 | 12.64555 | 17 ft | 16 kts | 169° |
| 2026-04-26 18:50 | 55.61653 | 12.64542 | 16 ft | 15 kts | 211° |
| 2026-04-26 18:50 | 55.61566 | 12.64443 | 18 ft | 15 kts | 213° |
| 2026-04-26 18:50 | 55.61510 | 12.64378 | 17 ft | 14 kts | 213° |
| 2026-04-26 18:51 | 55.61416 | 12.64269 | 18 ft | 17 kts | 213° |
| 2026-04-26 18:51 | 55.61318 | 12.64158 | 18 ft | 16 kts | 213° |
| 2026-04-26 18:51 | 55.61224 | 12.64051 | 17 ft | 16 kts | 213° |
| 2026-04-26 18:51 | 55.61134 | 12.63947 | 18 ft | 15 kts | 213° |
| 2026-04-26 18:52 | 55.61047 | 12.63846 | 16 ft | 15 kts | 213° |
| 2026-04-26 18:52 | 55.60963 | 12.63751 | 16 ft | 14 kts | 212° |
| 2026-04-26 18:52 | 55.60883 | 12.63658 | 17 ft | 14 kts | 214° |
| 2026-04-26 18:52 | 55.60801 | 12.63593 | 16 ft | 13 kts | 174° |
| 2026-04-26 18:53 | 55.60740 | 12.63682 | 18 ft | 8 kts | 131° |
| 2026-04-26 18:53 | 55.60738 | 12.63686 | 16 ft | 0 kts | 131° |
| 2026-04-26 18:54 | 55.60722 | 12.63718 | 17 ft | 13 kts | 131° |
| 2026-04-26 18:54 | 55.60699 | 12.63907 | 18 ft | 13 kts | 61° |
| 2026-04-26 18:54 | 55.60711 | 12.63927 | 18 ft | 0 kts | 36° |
| 2026-04-26 18:55 | 55.60781 | 12.64018 | 19 ft | 36 kts | 39° |
| 2026-04-26 18:55 | 55.61130 | 12.64584 | 16 ft | 98 kts | 41° |
| 2026-04-26 18:55 | 55.61781 | 12.65584 | 17 ft | 148 kts | 41° |
| 2026-04-26 18:55 | 55.62625 | 12.66874 | 409 ft | 161 kts | 41° |
| 2026-04-26 18:56 | 55.63498 | 12.68248 | 934 ft | 173 kts | 40° |
| 2026-04-26 18:56 | 55.64441 | 12.69720 | 1463 ft | 188 kts | 39° |
| 2026-04-26 18:56 | 55.65463 | 12.71296 | 1956 ft | 202 kts | 39° |
| 2026-04-26 18:56 | 55.66578 | 12.72958 | 2362 ft | 217 kts | 38° |
| 2026-04-26 18:57 | 55.67790 | 12.74747 | 2780 ft | 236 kts | 38° |
| 2026-04-26 18:57 | 55.68636 | 12.76002 | 3267 ft | 245 kts | 37° |
| 2026-04-26 18:57 | 55.70460 | 12.78715 | 4183 ft | 264 kts | 37° |
| 2026-04-26 18:57 | 55.71874 | 12.80833 | 5117 ft | 267 kts | 36° |
| 2026-04-26 18:58 | 55.73300 | 12.82975 | 6104 ft | 270 kts | 36° |
| 2026-04-26 18:58 | 55.74736 | 12.85137 | 7061 ft | 271 kts | 36° |
| 2026-04-26 18:58 | 55.76165 | 12.87354 | 7966 ft | 274 kts | 36° |
| 2026-04-26 18:58 | 55.77597 | 12.89623 | 8872 ft | 277 kts | 36° |
| 2026-04-26 18:59 | 55.79043 | 12.91919 | 9800 ft | 280 kts | 36° |
| 2026-04-26 18:59 | 55.80507 | 12.94222 | 10595 ft | 286 kts | 35° |
| 2026-04-26 18:59 | 55.82046 | 12.96624 | 11046 ft | 303 kts | 36° |
| 2026-04-26 18:59 | 55.83672 | 12.99175 | 11502 ft | 320 kts | 36° |
| 2026-04-26 19:00 | 55.85384 | 13.01880 | 11943 ft | 338 kts | 36° |
| 2026-04-26 19:00 | 55.87176 | 13.04721 | 12522 ft | 350 kts | 36° |
| 2026-04-26 19:00 | 55.89008 | 13.07634 | 13319 ft | 356 kts | 36° |
| 2026-04-26 19:00 | 55.90867 | 13.10588 | 14152 ft | 361 kts | 36° |
| 2026-04-26 19:01 | 55.92755 | 13.13584 | 14900 ft | 366 kts | 36° |
| 2026-04-26 19:01 | 55.94669 | 13.16627 | 15690 ft | 371 kts | 36° |
| 2026-04-26 19:01 | 55.96607 | 13.19706 | 16471 ft | 375 kts | 36° |
| 2026-04-26 19:01 | 55.98569 | 13.22817 | 17244 ft | 379 kts | 34° |
| 2026-04-26 19:02 | 56.00737 | 13.25415 | 18016 ft | 371 kts | 17° |
| 2026-04-26 19:02 | 56.03212 | 13.26486 | 18737 ft | 366 kts | 3° |
| 2026-04-26 19:02 | 56.05749 | 13.27190 | 19380 ft | 372 kts | 5° |
| 2026-04-26 19:02 | 56.07473 | 13.27772 | 19819 ft | 375 kts | 6° |
| 2026-04-26 19:03 | 56.10911 | 13.29111 | 20690 ft | 381 kts | 7° |
| 2026-04-26 19:03 | 56.13508 | 13.30140 | 21368 ft | 384 kts | 7° |
| 2026-04-26 19:03 | 56.16133 | 13.31123 | 22004 ft | 387 kts | 6° |
| 2026-04-26 19:03 | 56.18785 | 13.32070 | 22614 ft | 390 kts | 6° |
| 2026-04-26 19:04 | 56.21464 | 13.33021 | 23209 ft | 394 kts | 6° |
| 2026-04-26 19:04 | 56.24164 | 13.33999 | 23803 ft | 398 kts | 6° |
| 2026-04-26 19:04 | 56.26891 | 13.35007 | 24294 ft | 401 kts | 6° |
| 2026-04-26 19:04 | 56.29634 | 13.36027 | 24771 ft | 404 kts | 6° |
| 2026-04-26 19:05 | 56.35178 | 13.38076 | 25694 ft | 409 kts | 6° |
| 2026-04-26 19:05 | 56.37976 | 13.39105 | 26140 ft | 412 kts | 6° |
| 2026-04-26 19:05 | 56.40795 | 13.40145 | 26606 ft | 414 kts | 6° |
| 2026-04-26 19:06 | 56.43621 | 13.41194 | 27020 ft | 416 kts | 6° |
| 2026-04-26 19:06 | 56.46468 | 13.42251 | 27418 ft | 419 kts | 6° |
| 2026-04-26 19:06 | 56.49330 | 13.43316 | 27811 ft | 421 kts | 6° |
| 2026-04-26 19:06 | 56.52204 | 13.44387 | 28179 ft | 423 kts | 6° |
| 2026-04-26 19:07 | 56.55093 | 13.45464 | 28543 ft | 425 kts | 6° |
| 2026-04-26 19:07 | 56.58000 | 13.46550 | 28895 ft | 428 kts | 6° |
| 2026-04-26 19:07 | 56.60920 | 13.47641 | 29242 ft | 430 kts | 6° |
| 2026-04-26 19:07 | 56.63853 | 13.48740 | 29581 ft | 432 kts | 6° |
| 2026-04-26 19:08 | 56.66803 | 13.49847 | 29953 ft | 433 kts | 6° |
| 2026-04-26 19:08 | 56.69790 | 13.50973 | 30417 ft | 432 kts | 6° |
| 2026-04-26 19:08 | 56.72730 | 13.52081 | 30794 ft | 431 kts | 6° |
| 2026-04-26 19:08 | 56.75663 | 13.53187 | 31172 ft | 430 kts | 6° |
| 2026-04-26 19:09 | 56.78591 | 13.54293 | 31530 ft | 430 kts | 6° |
| 2026-04-26 19:09 | 56.81522 | 13.55400 | 31860 ft | 430 kts | 6° |
| 2026-04-26 19:09 | 56.84452 | 13.56508 | 32226 ft | 430 kts | 6° |
| 2026-04-26 19:09 | 56.87379 | 13.57619 | 32595 ft | 429 kts | 6° |
| 2026-04-26 19:10 | 56.90299 | 13.58729 | 32967 ft | 429 kts | 6° |
| 2026-04-26 19:10 | 56.93216 | 13.59842 | 33389 ft | 427 kts | 6° |
| 2026-04-26 19:10 | 56.96121 | 13.60950 | 33783 ft | 426 kts | 6° |
| 2026-04-26 19:10 | 56.99019 | 13.62056 | 34162 ft | 425 kts | 6° |
| 2026-04-26 19:11 | 57.01913 | 13.63161 | 34486 ft | 424 kts | 6° |
| 2026-04-26 19:11 | 57.04806 | 13.64269 | 34771 ft | 424 kts | 6° |
| 2026-04-26 19:11 | 57.07692 | 13.65377 | 35050 ft | 424 kts | 6° |
| 2026-04-26 19:11 | 57.10583 | 13.66490 | 35249 ft | 426 kts | 6° |
| 2026-04-26 19:12 | 57.13503 | 13.67612 | 35264 ft | 431 kts | 7° |
| 2026-04-26 19:12 | 57.19363 | 13.69871 | 35284 ft | 428 kts | 7° |
| 2026-04-26 19:13 | 57.25139 | 13.72115 | 35269 ft | 423 kts | 7° |
| 2026-04-26 19:13 | 57.30892 | 13.74343 | 35270 ft | 422 kts | 7° |
| 2026-04-26 19:14 | 57.36644 | 13.76582 | 35266 ft | 422 kts | 7° |
| 2026-04-26 19:14 | 57.42429 | 13.78846 | 35264 ft | 422 kts | 7° |
| 2026-04-26 19:15 | 57.48180 | 13.81100 | 35276 ft | 423 kts | 7° |
| 2026-04-26 19:15 | 57.53941 | 13.83366 | 35270 ft | 423 kts | 7° |
| 2026-04-26 19:16 | 57.59699 | 13.85639 | 35262 ft | 422 kts | 7° |
| 2026-04-26 19:16 | 57.65451 | 13.87915 | 35262 ft | 423 kts | 7° |
| 2026-04-26 19:17 | 57.71206 | 13.90201 | 35260 ft | 423 kts | 7° |
| 2026-04-26 19:17 | 57.76963 | 13.92497 | 35270 ft | 423 kts | 7° |
| 2026-04-26 19:18 | 57.82719 | 13.94797 | 35253 ft | 422 kts | 7° |
| 2026-04-26 19:18 | 57.88461 | 13.97100 | 35251 ft | 422 kts | 7° |
| 2026-04-26 19:19 | 57.94209 | 13.99413 | 35243 ft | 422 kts | 7° |
| 2026-04-26 19:19 | 57.99956 | 14.01734 | 35246 ft | 423 kts | 7° |
| 2026-04-26 19:20 | 58.05707 | 14.04063 | 35242 ft | 423 kts | 7° |
| 2026-04-26 19:20 | 58.11457 | 14.06401 | 35239 ft | 423 kts | 7° |
| 2026-04-26 19:21 | 58.17245 | 14.08762 | 35251 ft | 423 kts | 7° |
| 2026-04-26 19:21 | 58.22008 | 14.10939 | 35238 ft | 428 kts | 16° |
| 2026-04-26 19:21 | 58.25388 | 14.15133 | 35317 ft | 444 kts | 36° |
| 2026-04-26 19:22 | 58.26904 | 14.17775 | 35279 ft | 448 kts | 37° |
| 2026-04-26 19:22 | 58.31405 | 14.25934 | 35247 ft | 443 kts | 37° |
| 2026-04-26 19:23 | 58.36010 | 14.33675 | 35207 ft | 441 kts | 35° |
| 2026-04-26 19:23 | 58.40620 | 14.41440 | 35202 ft | 443 kts | 36° |
| 2026-04-26 19:24 | 58.45182 | 14.49355 | 35210 ft | 443 kts | 36° |
| 2026-04-26 19:24 | 58.52050 | 14.61183 | 35205 ft | 439 kts | 35° |
| 2026-04-26 19:25 | 58.55808 | 14.67686 | 35200 ft | 438 kts | 35° |
| 2026-04-26 19:25 | 58.61090 | 14.76873 | 35204 ft | 439 kts | 35° |
| 2026-04-26 19:26 | 58.65611 | 14.84758 | 35205 ft | 440 kts | 36° |
| 2026-04-26 19:26 | 58.70130 | 14.92673 | 35208 ft | 440 kts | 36° |
| 2026-04-26 19:27 | 58.74648 | 15.00615 | 35238 ft | 439 kts | 35° |
| 2026-04-26 19:27 | 58.79131 | 15.08525 | 35216 ft | 436 kts | 35° |
| 2026-04-26 19:28 | 58.83600 | 15.16432 | 35204 ft | 436 kts | 36° |
| 2026-04-26 19:28 | 58.88069 | 15.24373 | 35204 ft | 436 kts | 36° |
| 2026-04-26 19:29 | 58.92382 | 15.32712 | 35210 ft | 443 kts | 41° |
| 2026-04-26 19:29 | 58.96456 | 15.41731 | 35201 ft | 445 kts | 41° |
| 2026-04-26 19:30 | 58.98495 | 15.46304 | 34842 ft | 448 kts | 41° |
| 2026-04-26 19:30 | 59.00498 | 15.50888 | 34416 ft | 443 kts | 41° |
| 2026-04-26 19:30 | 59.02469 | 15.55444 | 33961 ft | 439 kts | 41° |
| 2026-04-26 19:30 | 59.03756 | 15.58437 | 33616 ft | 433 kts | 41° |
| 2026-04-26 19:31 | 59.06274 | 15.64342 | 32836 ft | 422 kts | 42° |
| 2026-04-26 19:31 | 59.08127 | 15.68716 | 32238 ft | 416 kts | 42° |
| 2026-04-26 19:31 | 59.09950 | 15.73047 | 31645 ft | 410 kts | 42° |
| 2026-04-26 19:31 | 59.11737 | 15.77317 | 31061 ft | 405 kts | 42° |
| 2026-04-26 19:32 | 59.13497 | 15.81550 | 30490 ft | 400 kts | 42° |
| 2026-04-26 19:32 | 59.15240 | 15.85754 | 29879 ft | 401 kts | 42° |
| 2026-04-26 19:32 | 59.17030 | 15.90044 | 29239 ft | 413 kts | 42° |
| 2026-04-26 19:32 | 59.18852 | 15.94387 | 28605 ft | 413 kts | 42° |
| 2026-04-26 19:33 | 59.20665 | 15.98728 | 28033 ft | 412 kts | 42° |
| 2026-04-26 19:33 | 59.22468 | 16.03068 | 27421 ft | 411 kts | 42° |
| 2026-04-26 19:33 | 59.24266 | 16.07397 | 26826 ft | 408 kts | 42° |
| 2026-04-26 19:33 | 59.26055 | 16.11703 | 26236 ft | 411 kts | 42° |
| 2026-04-26 19:34 | 59.27890 | 16.16085 | 25665 ft | 421 kts | 42° |
| 2026-04-26 19:34 | 59.29743 | 16.20492 | 25098 ft | 419 kts | 42° |
| 2026-04-26 19:34 | 59.31618 | 16.24936 | 24547 ft | 424 kts | 42° |
| 2026-04-26 19:34 | 59.33470 | 16.29336 | 24001 ft | 411 kts | 42° |
| 2026-04-26 19:35 | 59.35263 | 16.33624 | 23427 ft | 405 kts | 42° |
| 2026-04-26 19:35 | 59.37112 | 16.37722 | 22810 ft | 391 kts | 34° |
| 2026-04-26 19:35 | 59.39184 | 16.40953 | 22204 ft | 373 kts | 27° |
| 2026-04-26 19:35 | 59.41329 | 16.43650 | 21600 ft | 360 kts | 23° |
| 2026-04-26 19:36 | 59.43452 | 16.46145 | 21042 ft | 351 kts | 23° |
| 2026-04-26 19:36 | 59.44812 | 16.47817 | 20646 ft | 347 kts | 25° |
| 2026-04-26 19:36 | 59.47462 | 16.51342 | 19872 ft | 339 kts | 27° |
| 2026-04-26 19:36 | 59.49377 | 16.54005 | 19310 ft | 333 kts | 27° |
| 2026-04-26 19:37 | 59.51257 | 16.56596 | 18757 ft | 327 kts | 26° |
| 2026-04-26 19:37 | 59.53116 | 16.59111 | 18164 ft | 322 kts | 27° |
| 2026-04-26 19:37 | 59.54773 | 16.62107 | 17529 ft | 333 kts | 46° |
| 2026-04-26 19:37 | 59.55657 | 16.66438 | 16941 ft | 354 kts | 73° |
| 2026-04-26 19:38 | 59.55746 | 16.71327 | 16361 ft | 360 kts | 84° |
| 2026-04-26 19:38 | 59.55557 | 16.76261 | 15769 ft | 359 kts | 88° |
| 2026-04-26 19:38 | 59.55344 | 16.81172 | 15260 ft | 359 kts | 86° |
| 2026-04-26 19:38 | 59.55232 | 16.86071 | 14790 ft | 356 kts | 84° |
| 2026-04-26 19:39 | 59.55209 | 16.90935 | 14295 ft | 353 kts | 83° |
| 2026-04-26 19:39 | 59.55206 | 16.95767 | 13817 ft | 350 kts | 83° |
| 2026-04-26 19:39 | 59.55172 | 17.00509 | 13295 ft | 342 kts | 84° |
| 2026-04-26 19:39 | 59.55109 | 17.05137 | 12773 ft | 333 kts | 85° |
| 2026-04-26 19:40 | 59.55038 | 17.09636 | 12259 ft | 324 kts | 85° |
| 2026-04-26 19:40 | 59.54974 | 17.14034 | 11757 ft | 317 kts | 86° |
| 2026-04-26 19:40 | 59.54919 | 17.18328 | 11275 ft | 310 kts | 86° |
| 2026-04-26 19:40 | 59.54867 | 17.22504 | 11148 ft | 299 kts | 86° |
| 2026-04-26 19:41 | 59.54814 | 17.26610 | 11153 ft | 305 kts | 86° |
| 2026-04-26 19:41 | 59.54759 | 17.30818 | 11143 ft | 307 kts | 86° |
| 2026-04-26 19:41 | 59.54698 | 17.35015 | 11139 ft | 303 kts | 86° |
| 2026-04-26 19:41 | 59.54657 | 17.37751 | 11135 ft | 302 kts | 86° |
| 2026-04-26 19:42 | 59.54575 | 17.43355 | 11125 ft | 307 kts | 86° |
| 2026-04-26 19:42 | 59.54514 | 17.47548 | 11116 ft | 305 kts | 86° |
| 2026-04-26 19:42 | 59.54449 | 17.51701 | 10936 ft | 300 kts | 87° |
| 2026-04-26 19:42 | 59.54378 | 17.55765 | 10560 ft | 299 kts | 88° |
| 2026-04-26 19:43 | 59.54307 | 17.59900 | 10182 ft | 297 kts | 88° |
| 2026-04-26 19:43 | 59.54239 | 17.63947 | 9814 ft | 295 kts | 88° |
| 2026-04-26 19:43 | 59.54171 | 17.67970 | 9410 ft | 293 kts | 88° |
| 2026-04-26 19:43 | 59.54102 | 17.71967 | 9024 ft | 291 kts | 88° |
| 2026-04-26 19:44 | 59.54033 | 17.75888 | 8659 ft | 288 kts | 88° |
| 2026-04-26 19:44 | 59.53960 | 17.79871 | 8301 ft | 286 kts | 88° |
| 2026-04-26 19:44 | 59.53888 | 17.83777 | 7958 ft | 284 kts | 88° |
| 2026-04-26 19:44 | 59.53817 | 17.87612 | 7590 ft | 282 kts | 88° |
| 2026-04-26 19:45 | 59.53960 | 17.91462 | 7210 ft | 275 kts | 71° |
| 2026-04-26 19:45 | 59.54482 | 17.95048 | 6849 ft | 271 kts | 68° |
| 2026-04-26 19:45 | 59.55041 | 17.98589 | 6497 ft | 270 kts | 68° |
| 2026-04-26 19:45 | 59.55600 | 18.02115 | 6133 ft | 268 kts | 68° |
| 2026-04-26 19:46 | 59.56155 | 18.05620 | 5772 ft | 267 kts | 68° |
| 2026-04-26 19:46 | 59.56705 | 18.09103 | 5404 ft | 265 kts | 68° |
| 2026-04-26 19:46 | 59.57236 | 18.12512 | 5321 ft | 253 kts | 68° |
| 2026-04-26 19:46 | 59.57732 | 18.15734 | 5183 ft | 245 kts | 68° |
| 2026-04-26 19:47 | 59.58225 | 18.18973 | 4902 ft | 243 kts | 68° |
| 2026-04-26 19:47 | 59.58382 | 18.20008 | 4806 ft | 242 kts | 68° |
| 2026-04-26 19:47 | 59.59178 | 18.25275 | 4138 ft | 239 kts | 68° |
| 2026-04-26 19:47 | 59.59825 | 18.28246 | 3694 ft | 231 kts | 47° |
| 2026-04-26 19:48 | 59.61029 | 18.30140 | 3305 ft | 218 kts | 21° |
| 2026-04-26 19:48 | 59.62373 | 18.31285 | 3179 ft | 203 kts | 18° |
| 2026-04-26 19:48 | 59.63657 | 18.32334 | 2976 ft | 198 kts | 17° |
| 2026-04-26 19:48 | 59.64969 | 18.32891 | 2732 ft | 191 kts | 354° |
| 2026-04-26 19:49 | 59.66270 | 18.32533 | 2516 ft | 188 kts | 348° |
| 2026-04-26 19:49 | 59.67548 | 18.32059 | 2516 ft | 188 kts | 348° |
| 2026-04-26 19:49 | 59.68790 | 18.31285 | 2509 ft | 189 kts | 330° |
| 2026-04-26 19:49 | 59.69708 | 18.29432 | 2500 ft | 194 kts | 302° |
| 2026-04-26 19:50 | 59.69993 | 18.26785 | 2515 ft | 206 kts | 269° |
| 2026-04-26 19:50 | 59.69634 | 18.23992 | 2523 ft | 211 kts | 261° |
| 2026-04-26 19:50 | 59.69292 | 18.21213 | 2521 ft | 203 kts | 263° |
| 2026-04-26 19:50 | 59.68979 | 18.18585 | 2409 ft | 191 kts | 263° |
| 2026-04-26 19:51 | 59.68670 | 18.16077 | 2129 ft | 180 kts | 263° |
| 2026-04-26 19:51 | 59.68376 | 18.13720 | 1906 ft | 170 kts | 264° |
| 2026-04-26 19:51 | 59.68099 | 18.11527 | 1609 ft | 158 kts | 264° |
| 2026-04-26 19:51 | 59.67840 | 18.09454 | 1409 ft | 151 kts | 263° |
| 2026-04-26 19:52 | 59.67592 | 18.07478 | 1200 ft | 147 kts | 263° |
| 2026-04-26 19:52 | 59.67351 | 18.05562 | 991 ft | 140 kts | 262° |
| 2026-04-26 19:52 | 59.67116 | 18.03693 | 793 ft | 140 kts | 261° |
| 2026-04-26 19:52 | 59.66883 | 18.01841 | 628 ft | 138 kts | 261° |
| 2026-04-26 19:53 | 59.66652 | 17.99978 | 369 ft | 141 kts | 259° |
| 2026-04-26 19:53 | 59.66492 | 17.98754 | 239 ft | 136 kts | 259° |
| 2026-04-26 19:53 | 59.66264 | 17.96995 | 120 ft | 120 kts | 258° |
| 2026-04-26 19:53 | 59.66113 | 17.95757 | 123 ft | 66 kts | 256° |
| 2026-04-26 19:54 | 59.66043 | 17.95201 | 119 ft | 29 kts | 256° |
| 2026-04-26 19:54 | 59.65959 | 17.94743 | 122 ft | 36 kts | 237° |
| 2026-04-26 19:54 | 59.65818 | 17.94424 | 121 ft | 11 kts | 227° |
| 2026-04-26 19:54 | 59.65815 | 17.94419 | 122 ft | 0 kts | 227° |
| 2026-04-26 19:55 | 59.65779 | 17.94345 | 122 ft | 16 kts | 227° |
| 2026-04-26 19:55 | 59.65704 | 17.94194 | 120 ft | 15 kts | 225° |
| 2026-04-26 19:56 | 59.65636 | 17.94023 | 117 ft | 17 kts | 243° |
| 2026-04-26 19:56 | 59.65552 | 17.93872 | 111 ft | 18 kts | 174° |
| 2026-04-26 19:56 | 59.65457 | 17.93923 | 112 ft | 11 kts | 165° |
| 2026-04-26 19:56 | 59.65383 | 17.93957 | 111 ft | 10 kts | 182° |
| 2026-04-26 19:57 | 59.65350 | 17.93848 | 111 ft | 9 kts | 256° |
| 2026-04-26 19:57 | 59.65344 | 17.93798 | 111 ft | 0 kts | 255° |